Progress, Oregon
Current Conditions -  °F | °C
As of 11:56 AM on Saturday 20 Dec 2014 (Local Time) from KHIO Reporting Station
Light Rain Light Rain  
Wind Chill: 10°   Ceiling: 800
Heat Index: 10°   Visibility: 2.5mi
Dew Point:   Wind: 16mph
Humidity: 93%   Direction: 180°S
Pressure: 29.66"   Gusts: 25mph
Location:  45.4908°N, 122.804°W
Report Text: KHIO 201956Z 18014G22KT 2 1/2SM -RA BR BKN008 OVC060 10/09 A2966 RMK AO2 P0001 T01000089
Loading
Personal Weather Stations






























Interactive Weather Map New forecast layout! Learn more

10-Day Weather Forecast

Advertisements
Track Severe Weather on mobile